Time;durP1;ratioP1;P1;durP2;ratioP2;P2;SDS_P1;SDS_P2;PMS_P1;PMS_P2;Temp;Humidity;BMP_temperature;BMP_pressure;BME280_temperature;BME280_humidity;BME280_pressure;Samples;Min_cycle;Max_cycle;Signal;HPM_P1;HPM_P2
2022/06/01 00:01:48;;;;;;;0.63;0.60;;;;;;;;;;5096959;28;20943;-75
2022/06/01 00:04:16;;;;;;;0.70;0.60;;;;;;;;;;5094957;28;20530;-75
2022/06/01 00:06:42;;;;;;;0.70;0.60;;;;;;;;;;5096138;28;21015;-74
2022/06/01 00:09:09;;;;;;;0.70;0.60;;;;;;;;;;5077794;28;20430;-73
2022/06/01 00:11:36;;;;;;;0.67;0.60;;;;;;;;;;5095774;28;20423;-73
2022/06/01 00:14:08;;;;;;;0.70;0.60;;;;;;;;;;5094529;28;20794;-74
2022/06/01 00:16:34;;;;;;;0.70;0.60;;;;;;;;;;5094257;28;20460;-74
2022/06/01 00:19:03;;;;;;;0.70;0.60;;;;;;;;;;5078202;28;20473;-75
2022/06/01 00:21:31;;;;;;;0.73;0.70;;;;;;;;;;5082554;28;20493;-77
2022/06/01 00:23:58;;;;;;;0.70;0.60;;;;;;;;;;5074593;28;20568;-74
2022/06/01 00:26:25;;;;;;;0.70;0.60;;;;;;;;;;5078609;28;21002;-75
2022/06/01 00:28:52;;;;;;;0.70;0.60;;;;;;;;;;5058327;28;20800;-75
2022/06/01 00:31:18;;;;;;;0.70;0.60;;;;;;;;;;5074488;28;20482;-75
2022/06/01 00:33:45;;;;;;;0.70;0.60;;;;;;;;;;5076262;28;20528;-74
2022/06/01 00:36:14;;;;;;;0.60;0.60;;;;;;;;;;5074022;28;20504;-74
2022/06/01 00:38:41;;;;;;;0.60;0.60;;;;;;;;;;5073858;28;20446;-74
2022/06/01 00:41:09;;;;;;;0.70;0.60;;;;;;;;;;5059772;28;20451;-75
2022/06/01 00:43:38;;;;;;;0.70;0.60;;;;;;;;;;5084668;28;20499;-74
2022/06/01 00:46:06;;;;;;;0.70;0.60;;;;;;;;;;5074576;28;20459;-74
2022/06/01 00:48:39;;;;;;;0.70;0.60;;;;;;;;;;5076836;28;20452;-74
2022/06/01 00:51:11;;;;;;;0.70;0.60;;;;;;;;;;5093800;28;20488;-74
2022/06/01 00:53:47;;;;;;;0.70;0.60;;;;;;;;;;5095913;28;20404;-74
2022/06/01 00:56:22;;;;;;;0.70;0.60;;;;;;;;;;5094159;28;20456;-73
2022/06/01 00:58:59;;;;;;;0.60;0.50;;;;;;;;;;5094811;28;20834;-73
2022/06/01 01:01:29;;;;;;;0.70;0.50;;;;;;;;;;5095049;28;20479;-73
2022/06/01 01:03:59;;;;;;;0.70;0.60;;;;;;;;;;5094945;28;20538;-73
2022/06/01 01:06:28;;;;;;;0.67;0.60;;;;;;;;;;5093172;28;20482;-74
2022/06/01 01:09:00;;;;;;;0.60;0.60;;;;;;;;;;5095862;28;20428;-73
2022/06/01 01:11:30;;;;;;;0.70;0.60;;;;;;;;;;5093848;28;20891;-73
2022/06/01 01:14:02;;;;;;;0.60;0.60;;;;;;;;;;5093880;28;20441;-73
2022/06/01 01:16:31;;;;;;;0.70;0.70;;;;;;;;;;5093946;28;20399;-72
2022/06/01 01:19:09;;;;;;;0.60;0.60;;;;;;;;;;5094309;28;20453;-73
2022/06/01 01:21:48;;;;;;;0.63;0.60;;;;;;;;;;5093868;28;20834;-73
2022/06/01 01:24:22;;;;;;;0.70;0.60;;;;;;;;;;5094325;28;20429;-73
2022/06/01 01:26:58;;;;;;;0.60;0.60;;;;;;;;;;5094427;28;20427;-73
2022/06/01 01:29:32;;;;;;;0.70;0.57;;;;;;;;;;5095193;28;20748;-71
2022/06/01 01:32:05;;;;;;;0.60;0.60;;;;;;;;;;5094790;28;20830;-73
2022/06/01 01:34:35;;;;;;;0.60;0.50;;;;;;;;;;5094629;28;20456;-72
2022/06/01 01:37:08;;;;;;;0.70;0.60;;;;;;;;;;5076922;28;20470;-73
2022/06/01 01:39:40;;;;;;;0.70;0.60;;;;;;;;;;5076046;28;20529;-73
2022/06/01 01:42:11;;;;;;;0.70;0.70;;;;;;;;;;5094265;28;20477;-73
2022/06/01 01:44:41;;;;;;;0.70;0.60;;;;;;;;;;5095563;28;20411;-73
2022/06/01 01:47:10;;;;;;;0.70;0.60;;;;;;;;;;5092804;28;20813;-74
2022/06/01 01:49:40;;;;;;;0.70;0.60;;;;;;;;;;5073253;28;20484;-73
2022/06/01 01:52:12;;;;;;;0.70;0.60;;;;;;;;;;5089799;28;20459;-73
2022/06/01 01:54:45;;;;;;;0.70;0.60;;;;;;;;;;5090108;28;20463;-72
2022/06/01 01:57:31;;;;;;;0.60;0.60;;;;;;;;;;5073101;28;20486;-73
2022/06/01 02:00:04;;;;;;;0.70;0.60;;;;;;;;;;5088669;28;20431;-73
2022/06/01 02:02:37;;;;;;;0.70;0.60;;;;;;;;;;5089364;28;20466;-73
2022/06/01 02:07:56;;;;;;;0.60;0.60;;;;;;;;;;5072029;28;20451;-73
2022/06/01 02:13:10;;;;;;;0.60;0.60;;;;;;;;;;5081524;28;20475;-73
2022/06/01 02:15:40;;;;;;;0.70;0.60;;;;;;;;;;5087126;28;20769;-73
2022/06/01 02:18:09;;;;;;;0.70;0.60;;;;;;;;;;5078312;28;20513;-73
2022/06/01 02:20:38;;;;;;;0.70;0.60;;;;;;;;;;5092344;28;20854;-72
2022/06/01 02:23:05;;;;;;;0.60;0.50;;;;;;;;;;5090041;28;20900;-73
2022/06/01 02:25:31;;;;;;;0.70;0.60;;;;;;;;;;5076698;28;20461;-73
2022/06/01 02:27:59;;;;;;;0.70;0.60;;;;;;;;;;5091540;28;20424;-73
2022/06/01 02:30:30;;;;;;;0.70;0.60;;;;;;;;;;5075955;28;20430;-73
2022/06/01 02:32:57;;;;;;;0.70;0.60;;;;;;;;;;5093818;28;20417;-74
2022/06/01 02:35:28;;;;;;;0.70;0.60;;;;;;;;;;5091593;28;20456;-73
2022/06/01 02:37:56;;;;;;;0.70;0.60;;;;;;;;;;5080559;28;20561;-73
2022/06/01 02:40:24;;;;;;;0.70;0.60;;;;;;;;;;5071946;28;20440;-73
2022/06/01 02:42:52;;;;;;;0.60;0.60;;;;;;;;;;5079587;28;20497;-74
2022/06/01 02:45:20;;;;;;;0.70;0.60;;;;;;;;;;5094002;28;20445;-73
2022/06/01 02:47:52;;;;;;;0.70;0.60;;;;;;;;;;5093660;28;20430;-73
2022/06/01 02:50:19;;;;;;;0.70;0.60;;;;;;;;;;5093591;28;20425;-73
2022/06/01 02:52:46;;;;;;;0.63;0.60;;;;;;;;;;5093412;28;20438;-73
2022/06/01 02:55:15;;;;;;;0.63;0.60;;;;;;;;;;5093187;28;20431;-73
2022/06/01 02:57:42;;;;;;;0.70;0.60;;;;;;;;;;5093732;28;20441;-73
2022/06/01 03:00:17;;;;;;;0.70;0.60;;;;;;;;;;5093377;28;20923;-73
2022/06/01 03:02:45;;;;;;;0.60;0.50;;;;;;;;;;5094223;28;20507;-73
2022/06/01 03:05:14;;;;;;;0.60;0.60;;;;;;;;;;5092515;28;20426;-73
2022/06/01 03:07:41;;;;;;;0.70;0.60;;;;;;;;;;5075541;28;20553;-73
2022/06/01 03:10:09;;;;;;;0.60;0.60;;;;;;;;;;5093268;28;20465;-73
2022/06/01 03:12:36;;;;;;;0.60;0.60;;;;;;;;;;5092744;28;20517;-74
2022/06/01 03:15:03;;;;;;;0.70;0.60;;;;;;;;;;5074914;28;20483;-72
2022/06/01 03:17:30;;;;;;;0.70;0.60;;;;;;;;;;5092436;28;20429;-73
2022/06/01 03:19:57;;;;;;;0.67;0.60;;;;;;;;;;5094742;28;20433;-73
2022/06/01 03:22:26;;;;;;;0.70;0.60;;;;;;;;;;5095777;28;21002;-72
2022/06/01 03:24:53;;;;;;;0.70;0.67;;;;;;;;;;5079404;28;20430;-72
2022/06/01 03:27:20;;;;;;;0.67;0.60;;;;;;;;;;5078852;28;20430;-72
2022/06/01 03:29:47;;;;;;;0.60;0.60;;;;;;;;;;5095909;28;20406;-73
2022/06/01 03:32:14;;;;;;;0.60;0.60;;;;;;;;;;5096032;28;20863;-71
2022/06/01 03:34:40;;;;;;;0.70;0.60;;;;;;;;;;5095656;28;20484;-72
2022/06/01 03:37:07;;;;;;;0.60;0.60;;;;;;;;;;5096906;28;20560;-72
2022/06/01 03:39:36;;;;;;;0.70;0.60;;;;;;;;;;5094826;28;20446;-72
2022/06/01 03:42:03;;;;;;;0.60;0.60;;;;;;;;;;5095535;28;20521;-72
2022/06/01 03:47:15;;;;;;;0.70;0.60;;;;;;;;;;5097356;28;20438;-73
2022/06/01 03:49:44;;;;;;;0.60;0.60;;;;;;;;;;5095214;28;21007;-73
2022/06/01 03:52:11;;;;;;;0.70;0.60;;;;;;;;;;5095636;28;20489;-72
2022/06/01 03:54:40;;;;;;;0.70;0.60;;;;;;;;;;5095641;28;20514;-72
2022/06/01 03:57:07;;;;;;;0.70;0.60;;;;;;;;;;5096930;28;20430;-72
2022/06/01 03:59:35;;;;;;;0.70;0.60;;;;;;;;;;5095508;28;20463;-72
2022/06/01 04:02:02;;;;;;;0.70;0.60;;;;;;;;;;5096314;28;20425;-72
2022/06/01 04:04:30;;;;;;;0.60;0.53;;;;;;;;;;5078363;28;20442;-73
2022/06/01 04:06:57;;;;;;;0.60;0.50;;;;;;;;;;5095504;28;20832;-74
2022/06/01 04:09:24;;;;;;;0.70;0.60;;;;;;;;;;5078202;28;20451;-72
2022/06/01 04:11:52;;;;;;;0.70;0.60;;;;;;;;;;5081829;28;20458;-72
2022/06/01 04:14:19;;;;;;;0.60;0.60;;;;;;;;;;5058802;28;20435;-72
2022/06/01 04:16:46;;;;;;;0.63;0.60;;;;;;;;;;5077038;28;20434;-72
2022/06/01 04:19:14;;;;;;;0.63;0.60;;;;;;;;;;5066694;28;20442;-73
2022/06/01 04:21:43;;;;;;;0.60;0.53;;;;;;;;;;5094937;28;20517;-72
2022/06/01 04:24:11;;;;;;;0.60;0.60;;;;;;;;;;5077443;28;20466;-72
2022/06/01 04:26:37;;;;;;;0.60;0.60;;;;;;;;;;5094619;28;20500;-72
2022/06/01 04:29:05;;;;;;;0.67;0.60;;;;;;;;;;5094802;28;20445;-72
2022/06/01 04:31:32;;;;;;;0.70;0.60;;;;;;;;;;5093066;28;20530;-72
2022/06/01 04:33:59;;;;;;;0.60;0.60;;;;;;;;;;5081819;28;20923;-73
2022/06/01 04:36:26;;;;;;;0.60;0.60;;;;;;;;;;5077375;28;20897;-73
2022/06/01 04:38:54;;;;;;;0.70;0.60;;;;;;;;;;5095485;28;20438;-72
2022/06/01 04:41:21;;;;;;;0.60;0.60;;;;;;;;;;5077381;28;20430;-72
2022/06/01 04:43:48;;;;;;;2.50;2.40;;;;;;;;;;5095493;28;20458;-73
2022/06/01 04:46:16;;;;;;;0.70;0.60;;;;;;;;;;5095219;28;20536;-72
2022/06/01 04:48:45;;;;;;;0.60;0.50;;;;;;;;;;5095442;28;20437;-72
2022/06/01 04:51:12;;;;;;;0.60;0.60;;;;;;;;;;5094726;28;20446;-73
2022/06/01 04:53:41;;;;;;;0.60;0.60;;;;;;;;;;5094107;28;20454;-71
2022/06/01 04:56:10;;;;;;;0.60;0.60;;;;;;;;;;5093608;28;20415;-72
2022/06/01 04:58:37;;;;;;;0.70;0.60;;;;;;;;;;5095174;28;20514;-73
2022/06/01 05:01:04;;;;;;;0.60;0.53;;;;;;;;;;5095556;28;20419;-71
2022/06/01 05:03:33;;;;;;;0.60;0.60;;;;;;;;;;5093470;28;20849;-72
2022/06/01 05:06:01;;;;;;;0.60;0.60;;;;;;;;;;5094893;28;20499;-73
2022/06/01 05:08:28;;;;;;;0.60;0.60;;;;;;;;;;5077378;28;20434;-73
2022/06/01 05:10:54;;;;;;;0.70;0.70;;;;;;;;;;5093977;28;20426;-73
2022/06/01 05:13:21;;;;;;;0.60;0.50;;;;;;;;;;5093939;28;20418;-73
2022/06/01 05:15:50;;;;;;;0.70;0.60;;;;;;;;;;5094373;28;20466;-73
2022/06/01 05:18:17;;;;;;;0.60;0.50;;;;;;;;;;5094038;28;20747;-73
2022/06/01 05:20:45;;;;;;;0.60;0.60;;;;;;;;;;5093839;28;20434;-74
2022/06/01 05:23:12;;;;;;;0.60;0.60;;;;;;;;;;5076353;28;20492;-72
2022/06/01 05:25:42;;;;;;;0.60;0.60;;;;;;;;;;5093274;28;20489;-73
2022/06/01 05:28:09;;;;;;;0.60;0.60;;;;;;;;;;5076520;28;20466;-74
2022/06/01 05:30:36;;;;;;;0.60;0.60;;;;;;;;;;5093773;28;20967;-74
2022/06/01 05:33:04;;;;;;;0.60;0.60;;;;;;;;;;5094764;28;20407;-73
2022/06/01 05:35:30;;;;;;;0.60;0.60;;;;;;;;;;5094328;28;20807;-73
2022/06/01 05:37:58;;;;;;;0.60;0.60;;;;;;;;;;5075861;28;20442;-72
2022/06/01 05:40:30;;;;;;;0.70;0.63;;;;;;;;;;5093301;28;20432;-72
2022/06/01 05:42:57;;;;;;;0.70;0.60;;;;;;;;;;5092601;28;20515;-74
2022/06/01 05:45:24;;;;;;;0.60;0.53;;;;;;;;;;5077015;28;20438;-74
2022/06/01 05:47:51;;;;;;;0.70;0.70;;;;;;;;;;5076055;28;21010;-74
2022/06/01 05:50:18;;;;;;;0.67;0.60;;;;;;;;;;5094331;28;20485;-72
2022/06/01 05:52:45;;;;;;;0.60;0.60;;;;;;;;;;5094888;28;20483;-73
2022/06/01 05:55:13;;;;;;;0.60;0.50;;;;;;;;;;5094197;28;20452;-74
2022/06/01 05:57:40;;;;;;;0.70;0.60;;;;;;;;;;5093843;28;20950;-73
2022/06/01 06:00:09;;;;;;;0.70;0.60;;;;;;;;;;5094400;28;20431;-73
2022/06/01 06:02:40;;;;;;;0.70;0.60;;;;;;;;;;5093245;28;20428;-73
2022/06/01 06:06:11;;;;;;;0.60;0.60;;;;;;;;;;5089945;28;20459;-73
2022/06/01 06:07:55;;;;;;;0.60;0.50;;;;;;;;;;5074596;28;20494;-71
2022/06/01 06:10:23;;;;;;;0.70;0.60;;;;;;;;;;5073119;28;20887;-73
2022/06/01 06:12:51;;;;;;;0.60;0.60;;;;;;;;;;5074209;28;20459;-72
2022/06/01 06:15:18;;;;;;;0.70;0.60;;;;;;;;;;5073667;28;20427;-73
2022/06/01 06:17:51;;;;;;;0.70;0.60;;;;;;;;;;5075620;28;20514;-73
2022/06/01 06:20:19;;;;;;;0.70;0.63;;;;;;;;;;5072741;28;20504;-74
2022/06/01 06:22:46;;;;;;;0.60;0.60;;;;;;;;;;5092715;28;20450;-74
2022/06/01 06:25:14;;;;;;;0.67;0.60;;;;;;;;;;5093460;28;20761;-74
2022/06/01 06:27:42;;;;;;;0.70;0.60;;;;;;;;;;5085861;28;20458;-74
2022/06/01 06:30:09;;;;;;;0.70;0.60;;;;;;;;;;5075954;28;20446;-72
2022/06/01 06:32:36;;;;;;;0.70;0.70;;;;;;;;;;5086832;28;20453;-75
2022/06/01 06:35:03;;;;;;;0.70;0.60;;;;;;;;;;5092396;28;20437;-75
2022/06/01 06:37:30;;;;;;;0.70;0.70;;;;;;;;;;5091895;28;20565;-76
2022/06/01 06:39:57;;;;;;;0.70;0.60;;;;;;;;;;5092072;28;20432;-75
2022/06/01 06:42:24;;;;;;;0.70;0.60;;;;;;;;;;5092482;28;20444;-75
2022/06/01 06:44:53;;;;;;;0.70;0.60;;;;;;;;;;5091902;28;20503;-75
2022/06/01 06:47:19;;;;;;;0.70;0.60;;;;;;;;;;5092505;28;20981;-76
2022/06/01 06:49:46;;;;;;;0.70;0.60;;;;;;;;;;5088427;28;20434;-74
2022/06/01 06:52:13;;;;;;;0.70;0.60;;;;;;;;;;5055681;28;20787;-74
2022/06/01 06:54:41;;;;;;;0.70;0.70;;;;;;;;;;5074904;28;20416;-74
2022/06/01 06:57:08;;;;;;;0.70;0.70;;;;;;;;;;5075848;28;20442;-76
2022/06/01 06:59:36;;;;;;;0.70;0.60;;;;;;;;;;5078107;28;20791;-76
2022/06/01 07:02:06;;;;;;;0.70;0.70;;;;;;;;;;5090155;28;20440;-75
2022/06/01 07:04:35;;;;;;;0.70;0.60;;;;;;;;;;5099983;28;20871;-75
2022/06/01 07:07:02;;;;;;;0.80;0.80;;;;;;;;;;5097012;28;20468;-76
2022/06/01 07:09:30;;;;;;;0.70;0.70;;;;;;;;;;5080588;28;20441;-76
2022/06/01 07:11:56;;;;;;;0.70;0.70;;;;;;;;;;5103569;28;20451;-80
2022/06/01 07:14:23;;;;;;;0.70;0.70;;;;;;;;;;5099628;28;20418;-75
2022/06/01 07:16:50;;;;;;;0.70;0.70;;;;;;;;;;5103920;28;20436;-78
2022/06/01 07:19:24;;;;;;;0.70;0.70;;;;;;;;;;5105095;28;20513;-77
2022/06/01 07:21:51;;;;;;;0.70;0.70;;;;;;;;;;5084565;28;20471;-78
2022/06/01 07:24:20;;;;;;;0.80;0.70;;;;;;;;;;5063893;28;20472;-79
2022/06/01 07:26:51;;;;;;;0.70;0.60;;;;;;;;;;5091192;28;20436;-78
2022/06/01 07:29:21;;;;;;;0.80;0.80;;;;;;;;;;5088730;28;20415;-86
2022/06/01 07:31:50;;;;;;;0.70;0.70;;;;;;;;;;5066151;28;20470;-79
2022/06/01 07:34:17;;;;;;;0.80;0.70;;;;;;;;;;5085784;28;20426;-80
2022/06/01 07:36:48;;;;;;;0.70;0.60;;;;;;;;;;5085111;28;20454;-79
2022/06/01 07:44:49;;;;;;;0.70;0.70;;;;;;;;;;5107108;28;20458;-80
2022/06/01 07:47:17;;;;;;;0.70;0.70;;;;;;;;;;5104702;28;20813;-80
2022/06/01 07:50:04;;;;;;;0.70;0.70;;;;;;;;;;5102615;28;20513;-81
2022/06/01 07:52:52;;;;;;;0.70;0.70;;;;;;;;;;5103827;28;20456;-80
2022/06/01 07:55:19;;;;;;;0.70;0.70;;;;;;;;;;5102238;28;20922;-79
2022/06/01 07:57:48;;;;;;;0.70;0.60;;;;;;;;;;5085195;28;20462;-82
2022/06/01 08:00:17;;;;;;;0.70;0.60;;;;;;;;;;5101058;28;20435;-85
2022/06/01 08:02:44;;;;;;;0.70;0.60;;;;;;;;;;5103210;28;20437;-82
2022/06/01 08:05:13;;;;;;;0.80;0.80;;;;;;;;;;5081685;28;20515;-84
2022/06/01 08:07:40;;;;;;;0.80;0.77;;;;;;;;;;5061101;28;20480;-82
2022/06/01 08:10:09;;;;;;;0.73;0.70;;;;;;;;;;5082506;28;20454;-85
2022/06/01 08:15:23;;;;;;;0.70;0.70;;;;;;;;;;5079559;28;20937;-83
2022/06/01 08:17:53;;;;;;;0.73;0.73;;;;;;;;;;5093036;28;20431;-86
2022/06/01 08:20:20;;;;;;;0.73;0.70;;;;;;;;;;5088792;28;20428;-86
2022/06/01 08:22:46;;;;;;;0.70;0.60;;;;;;;;;;5094586;28;20482;-83
2022/06/01 08:25:18;;;;;;;0.70;0.70;;;;;;;;;;5085561;28;20810;-79
2022/06/01 08:27:46;;;;;;;0.80;0.73;;;;;;;;;;5074939;28;20955;-80
2022/06/01 08:30:14;;;;;;;0.70;0.60;;;;;;;;;;5067254;28;20487;-81
2022/06/01 08:32:41;;;;;;;0.70;0.60;;;;;;;;;;5080288;28;20878;-79
2022/06/01 08:35:09;;;;;;;0.70;0.60;;;;;;;;;;5085055;28;20421;-81
2022/06/01 08:37:37;;;;;;;0.70;0.70;;;;;;;;;;5086863;28;20568;-84
2022/06/01 08:40:07;;;;;;;0.80;0.73;;;;;;;;;;5081219;28;20527;-88
2022/06/01 08:42:37;;;;;;;0.80;0.70;;;;;;;;;;5082874;28;20437;-84
2022/06/01 08:45:22;;;;;;;0.70;0.70;;;;;;;;;;5083007;28;20552;-81
2022/06/01 08:47:50;;;;;;;0.80;0.70;;;;;;;;;;5080759;28;20538;-84
2022/06/01 08:50:20;;;;;;;0.70;0.70;;;;;;;;;;5094996;28;20450;-81
2022/06/01 08:52:47;;;;;;;0.70;0.70;;;;;;;;;;5098406;28;20446;-83
2022/06/01 08:55:16;;;;;;;0.70;0.70;;;;;;;;;;5095958;28;20478;-81
2022/06/01 08:57:50;;;;;;;0.70;0.63;;;;;;;;;;5079253;28;20449;-82
2022/06/01 09:00:18;;;;;;;0.70;0.70;;;;;;;;;;5094780;28;20414;-83
2022/06/01 09:02:49;;;;;;;0.70;0.60;;;;;;;;;;5097900;28;20453;-84
2022/06/01 09:05:18;;;;;;;0.73;0.70;;;;;;;;;;5095819;28;20464;-81
2022/06/01 09:07:48;;;;;;;0.77;0.70;;;;;;;;;;5061068;28;20481;-81
2022/06/01 09:10:23;;;;;;;0.80;0.80;;;;;;;;;;5082810;28;20442;-85
2022/06/01 09:12:57;;;;;;;0.70;0.67;;;;;;;;;;5059280;28;20451;-83
2022/06/01 09:15:25;;;;;;;0.70;0.60;;;;;;;;;;5079670;28;20461;-84
2022/06/01 09:17:53;;;;;;;0.77;0.70;;;;;;;;;;5064519;28;20447;-85
2022/06/01 09:23:11;;;;;;;0.70;0.60;;;;;;;;;;5098649;28;20415;-84
2022/06/01 09:25:38;;;;;;;0.70;0.70;;;;;;;;;;5084274;28;20470;-85
2022/06/01 09:28:16;;;;;;;0.70;0.60;;;;;;;;;;5101771;28;20438;-82
2022/06/01 09:30:44;;;;;;;0.80;0.70;;;;;;;;;;5102016;28;20444;-80
2022/06/01 09:33:14;;;;;;;0.70;0.70;;;;;;;;;;5083798;28;20488;-81
2022/06/01 09:35:42;;;;;;;0.70;0.60;;;;;;;;;;5089732;28;20426;-86
2022/06/01 09:38:15;;;;;;;0.70;0.70;;;;;;;;;;5095761;28;20480;-82
2022/06/01 09:40:43;;;;;;;0.70;0.70;;;;;;;;;;5099930;28;20373;-85
2022/06/01 09:43:23;;;;;;;0.70;0.70;;;;;;;;;;5093790;28;20460;-85
2022/06/01 09:45:54;;;;;;;0.80;0.70;;;;;;;;;;5094588;28;20461;-84
2022/06/01 09:48:24;;;;;;;0.70;0.60;;;;;;;;;;5097960;28;20498;-85
2022/06/01 09:50:58;;;;;;;0.70;0.70;;;;;;;;;;5078778;28;20509;-84
2022/06/01 09:53:29;;;;;;;0.70;0.60;;;;;;;;;;5081782;28;20753;-83
2022/06/01 09:56:01;;;;;;;0.70;0.60;;;;;;;;;;5079912;28;20446;-80
2022/06/01 10:06:52;;;;;;;0.70;0.70;;;;;;;;;;5096738;28;20461;-86
2022/06/01 10:09:21;;;;;;;0.70;0.67;;;;;;;;;;5097136;28;20646;-85
2022/06/01 10:11:48;;;;;;;0.77;0.70;;;;;;;;;;5079408;28;20427;-82
2022/06/01 10:14:18;;;;;;;0.70;0.60;;;;;;;;;;5064737;28;20426;-88
2022/06/01 10:17:05;;;;;;;0.80;0.70;;;;;;;;;;5090576;28;20526;-84
2022/06/01 10:19:34;;;;;;;0.80;0.70;;;;;;;;;;5084992;28;20745;-86
2022/06/01 10:22:02;;;;;;;0.80;0.80;;;;;;;;;;5059320;28;20538;-85
2022/06/01 10:24:32;;;;;;;0.80;0.80;;;;;;;;;;5075833;28;20474;-85
2022/06/01 10:27:00;;;;;;;0.80;0.70;;;;;;;;;;5077925;28;20434;-85
2022/06/01 10:29:31;;;;;;;0.80;0.70;;;;;;;;;;5076201;28;20428;-84
2022/06/01 10:32:01;;;;;;;0.80;0.70;;;;;;;;;;5078906;28;20434;-86
2022/06/01 10:34:31;;;;;;;0.70;0.60;;;;;;;;;;5078233;28;20912;-85
2022/06/01 10:36:59;;;;;;;0.80;0.70;;;;;;;;;;5077990;28;20470;-87
2022/06/01 10:39:31;;;;;;;0.70;0.70;;;;;;;;;;5077923;28;20421;-78
2022/06/01 10:42:03;;;;;;;0.77;0.70;;;;;;;;;;5079789;28;20439;-85
2022/06/01 10:44:33;;;;;;;0.80;0.70;;;;;;;;;;5083136;28;20451;-84
2022/06/01 10:47:02;;;;;;;0.70;0.60;;;;;;;;;;5087873;28;20401;-81
2022/06/01 10:49:38;;;;;;;0.70;0.60;;;;;;;;;;5090472;28;20480;-84
2022/06/01 10:52:12;;;;;;;0.70;0.60;;;;;;;;;;5082916;28;20466;-88
2022/06/01 10:54:43;;;;;;;0.70;0.50;;;;;;;;;;5097509;28;20438;-83
2022/06/01 10:57:13;;;;;;;0.70;0.50;;;;;;;;;;5099805;28;20422;-84
2022/06/01 10:59:42;;;;;;;0.70;0.50;;;;;;;;;;5097869;28;20533;-82
2022/06/01 11:02:16;;;;;;;0.70;0.60;;;;;;;;;;5081755;28;20404;-83
2022/06/01 11:04:54;;;;;;;0.70;0.53;;;;;;;;;;5084603;28;20570;-84
2022/06/01 11:07:37;;;;;;;0.70;0.60;;;;;;;;;;5089277;28;20470;-82
2022/06/01 11:10:10;;;;;;;0.70;0.50;;;;;;;;;;5076301;28;20500;-82
2022/06/01 11:12:43;;;;;;;0.70;0.60;;;;;;;;;;5077259;28;20451;-84
2022/06/01 11:15:17;;;;;;;0.70;0.60;;;;;;;;;;5080550;28;20454;-78
2022/06/01 11:17:46;;;;;;;0.70;0.60;;;;;;;;;;5076034;28;20449;-82
2022/06/01 11:20:20;;;;;;;0.70;0.60;;;;;;;;;;5082962;28;20481;-81
2022/06/01 11:22:58;;;;;;;0.70;0.60;;;;;;;;;;5075802;28;20531;-81
2022/06/01 11:25:28;;;;;;;0.70;0.60;;;;;;;;;;5077817;28;20466;-81
2022/06/01 11:28:05;;;;;;;0.70;0.60;;;;;;;;;;5075300;28;20426;-84
2022/06/01 11:30:39;;;;;;;0.70;0.60;;;;;;;;;;5101760;28;20441;-82
2022/06/01 11:33:10;;;;;;;0.70;0.60;;;;;;;;;;5065458;28;20524;-76
2022/06/01 11:35:39;;;;;;;0.70;0.60;;;;;;;;;;5086863;28;20447;-79
2022/06/01 11:38:10;;;;;;;0.70;0.60;;;;;;;;;;5093762;28;20477;-81
2022/06/01 11:40:39;;;;;;;0.70;0.60;;;;;;;;;;5089335;28;20495;-78
2022/06/01 11:43:11;;;;;;;0.70;0.60;;;;;;;;;;5090129;28;20454;-79
2022/06/01 11:45:41;;;;;;;0.70;0.60;;;;;;;;;;5067219;28;20463;-79
2022/06/01 11:48:11;;;;;;;0.70;0.60;;;;;;;;;;5081141;28;20447;-80
2022/06/01 11:50:53;;;;;;;0.70;0.60;;;;;;;;;;5075756;28;20447;-84
2022/06/01 11:53:22;;;;;;;0.70;0.60;;;;;;;;;;5085448;28;20938;-82
2022/06/01 11:55:49;;;;;;;0.70;0.57;;;;;;;;;;5097957;28;20472;-83
2022/06/01 11:58:35;;;;;;;0.70;0.60;;;;;;;;;;5073456;28;20447;-80
2022/06/01 12:01:11;;;;;;;0.70;0.60;;;;;;;;;;5077991;28;20455;-80
2022/06/01 12:03:52;;;;;;;0.70;0.60;;;;;;;;;;5079051;28;20439;-80
2022/06/01 12:06:34;;;;;;;0.70;0.60;;;;;;;;;;5067841;28;20470;-84
2022/06/01 12:09:02;;;;;;;0.70;0.60;;;;;;;;;;5078994;28;20446;-82
2022/06/01 12:11:40;;;;;;;0.70;0.60;;;;;;;;;;5095175;28;20441;-78
2022/06/01 12:14:18;;;;;;;0.80;0.70;;;;;;;;;;5094474;28;20464;-78
2022/06/01 12:17:07;;;;;;;0.80;0.70;;;;;;;;;;5078596;28;20446;-77
2022/06/01 12:19:34;;;;;;;0.80;0.70;;;;;;;;;;5093745;28;20449;-78
2022/06/01 12:22:03;;;;;;;0.80;0.70;;;;;;;;;;5097902;28;20957;-80
2022/06/01 12:30:08;;;;;;;0.70;0.60;;;;;;;;;;5096385;28;20439;-85
2022/06/01 12:33:08;;;;;;;0.80;0.80;;;;;;;;;;5079290;28;20462;-81
2022/06/01 12:35:44;;;;;;;0.70;0.60;;;;;;;;;;5002705;28;20418;-81
2022/06/01 12:38:15;;;;;;;0.70;0.60;;;;;;;;;;5002329;28;20504;-79
2022/06/01 12:40:52;;;;;;;0.70;0.70;;;;;;;;;;5044134;28;20491;-78
2022/06/01 12:43:21;;;;;;;0.70;0.70;;;;;;;;;;5079930;28;20423;-80
2022/06/01 12:45:49;;;;;;;0.70;0.60;;;;;;;;;;5100975;28;20454;-79
2022/06/01 12:48:19;;;;;;;0.70;0.60;;;;;;;;;;5105374;28;20426;-79
2022/06/01 12:51:04;;;;;;;0.70;0.60;;;;;;;;;;5086059;28;20466;-81
2022/06/01 12:53:46;;;;;;;0.70;0.60;;;;;;;;;;5099726;28;20426;-81
2022/06/01 12:56:16;;;;;;;0.70;0.60;;;;;;;;;;5089992;28;20450;-79
2022/06/01 12:58:43;;;;;;;0.70;0.50;;;;;;;;;;5082005;28;20484;-81
2022/06/01 13:01:11;;;;;;;0.70;0.60;;;;;;;;;;5082294;28;20760;-81
2022/06/01 13:03:42;;;;;;;0.70;0.60;;;;;;;;;;5080636;28;20485;-80
2022/06/01 13:06:10;;;;;;;0.70;0.60;;;;;;;;;;5085481;28;20811;-78
2022/06/01 13:08:39;;;;;;;0.70;0.60;;;;;;;;;;5084595;28;20493;-84
2022/06/01 13:11:21;;;;;;;0.80;0.70;;;;;;;;;;5078309;28;20491;-81
2022/06/01 13:13:48;;;;;;;0.70;0.60;;;;;;;;;;5076928;28;20442;-78
2022/06/01 13:16:15;;;;;;;0.80;0.60;;;;;;;;;;5077898;28;20433;-80
2022/06/01 13:18:43;;;;;;;0.70;0.60;;;;;;;;;;5090945;28;20689;-80
2022/06/01 13:21:14;;;;;;;0.70;0.60;;;;;;;;;;5075213;28;20459;-79
2022/06/01 13:23:45;;;;;;;0.70;0.60;;;;;;;;;;5058825;28;20449;-80
2022/06/01 13:26:16;;;;;;;0.80;0.70;;;;;;;;;;5081417;28;20493;-82
2022/06/01 13:28:46;;;;;;;0.80;0.70;;;;;;;;;;5072380;28;20435;-82
2022/06/01 13:31:13;;;;;;;0.80;0.67;;;;;;;;;;5055990;28;20413;-79
2022/06/01 13:33:42;;;;;;;0.80;0.70;;;;;;;;;;5072649;28;20512;-81
2022/06/01 13:36:10;;;;;;;0.70;0.60;;;;;;;;;;5055502;28;20467;-80
2022/06/01 13:38:40;;;;;;;0.80;0.70;;;;;;;;;;5055499;28;20818;-80
2022/06/01 13:41:10;;;;;;;0.80;0.60;;;;;;;;;;5073954;28;20420;-77
2022/06/01 13:43:41;;;;;;;0.80;0.73;;;;;;;;;;5057017;28;20436;-78
2022/06/01 13:46:12;;;;;;;0.80;0.70;;;;;;;;;;5076521;28;21053;-79
2022/06/01 13:48:40;;;;;;;0.80;0.70;;;;;;;;;;5066500;28;20445;-79
2022/06/01 13:51:12;;;;;;;0.80;0.70;;;;;;;;;;5094453;28;20879;-79
2022/06/01 13:53:43;;;;;;;0.80;0.70;;;;;;;;;;5080909;28;20418;-80
2022/06/01 13:56:21;;;;;;;0.80;0.70;;;;;;;;;;5070816;28;20408;-80
2022/06/01 13:58:52;;;;;;;0.80;0.70;;;;;;;;;;5061466;28;20830;-80
2022/06/01 14:01:30;;;;;;;0.80;0.60;;;;;;;;;;5092349;28;20433;-79
2022/06/01 14:03:58;;;;;;;0.80;0.60;;;;;;;;;;5090009;28;20512;-79
2022/06/01 14:06:33;;;;;;;0.70;0.70;;;;;;;;;;5091688;28;20950;-79
2022/06/01 14:09:03;;;;;;;0.80;0.70;;;;;;;;;;5071828;28;20454;-81
2022/06/01 14:11:31;;;;;;;0.80;0.70;;;;;;;;;;5090464;28;20936;-80
2022/06/01 14:14:00;;;;;;;0.80;0.70;;;;;;;;;;5076541;28;20457;-79
2022/06/01 14:16:29;;;;;;;0.80;0.70;;;;;;;;;;5084817;28;20462;-80
2022/06/01 14:18:57;;;;;;;0.80;0.70;;;;;;;;;;5080038;28;20457;-82
2022/06/01 14:21:24;;;;;;;0.80;0.70;;;;;;;;;;5089423;28;21032;-81
2022/06/01 14:23:52;;;;;;;0.80;0.70;;;;;;;;;;5093060;28;20458;-82
2022/06/01 14:29:04;;;;;;;0.80;0.70;;;;;;;;;;5094288;28;20923;-80
2022/06/01 14:31:34;;;;;;;0.77;0.70;;;;;;;;;;5076190;28;20807;-81
2022/06/01 14:34:04;;;;;;;0.80;0.80;;;;;;;;;;5092714;28;20491;-81
2022/06/01 14:36:31;;;;;;;0.70;0.60;;;;;;;;;;5074923;28;20513;-81
2022/06/01 14:39:00;;;;;;;1.10;1.00;;;;;;;;;;5076259;28;20432;-83
2022/06/01 14:41:29;;;;;;;0.80;0.70;;;;;;;;;;5092218;28;20844;-81
2022/06/01 14:43:58;;;;;;;0.87;0.87;;;;;;;;;;5076188;28;20949;-82
2022/06/01 14:46:26;;;;;;;0.70;0.60;;;;;;;;;;5093075;28;20472;-81
2022/06/01 14:48:56;;;;;;;0.80;0.80;;;;;;;;;;5092208;28;21044;-81
2022/06/01 14:51:24;;;;;;;0.80;0.70;;;;;;;;;;5092806;28;20551;-81
2022/06/01 14:53:55;;;;;;;0.80;0.60;;;;;;;;;;5076156;28;20495;-82
2022/06/01 14:56:22;;;;;;;0.80;0.60;;;;;;;;;;5092282;28;20496;-79
2022/06/01 14:58:50;;;;;;;0.73;0.63;;;;;;;;;;5076077;28;20428;-80
2022/06/01 15:01:23;;;;;;;0.77;0.67;;;;;;;;;;5092817;28;20417;-80
2022/06/01 15:03:50;;;;;;;0.80;0.80;;;;;;;;;;5092692;28;20495;-81
2022/06/01 15:06:20;;;;;;;0.73;0.63;;;;;;;;;;5092174;28;21015;-83
2022/06/01 15:08:47;;;;;;;0.80;0.70;;;;;;;;;;5092691;28;20425;-83
2022/06/01 15:11:15;;;;;;;0.70;0.63;;;;;;;;;;5075206;28;20956;-82
2022/06/01 15:13:42;;;;;;;0.80;0.70;;;;;;;;;;5075965;28;20441;-81
2022/06/01 15:16:10;;;;;;;1.00;0.90;;;;;;;;;;5093516;28;20522;-82
2022/06/01 15:18:40;;;;;;;0.80;0.70;;;;;;;;;;5079347;28;20451;-82
2022/06/01 15:21:09;;;;;;;0.80;0.70;;;;;;;;;;5092971;28;20458;-81
2022/06/01 15:23:38;;;;;;;0.80;0.80;;;;;;;;;;5094448;28;20409;-80
2022/06/01 15:26:05;;;;;;;0.80;0.60;;;;;;;;;;5072799;28;20470;-82
2022/06/01 15:28:35;;;;;;;0.80;0.70;;;;;;;;;;5091052;28;20724;-81
2022/06/01 15:39:30;;;;;;;0.80;0.70;;;;;;;;;;5090020;28;20443;-80
2022/06/01 15:41:57;;;;;;;0.80;0.70;;;;;;;;;;5069668;28;20458;-79
2022/06/01 15:44:24;;;;;;;0.70;0.70;;;;;;;;;;5086273;28;20506;-80